Time;durP1;ratioP1;P1;durP2;ratioP2;P2;SDS_P1;SDS_P2;PMS_P1;PMS_P2;Temp;Humidity;BMP_temperature;BMP_pressure;BME280_temperature;BME280_humidity;BME280_pressure;Samples;Min_cycle;Max_cycle;Signal;HPM_P1;HPM_P2
2022/11/02 00:00:45;;;;;;;15.75;3.15;;;;;;;;;;5083606;28;20046;-55
2022/11/02 00:03:10;;;;;;;19.45;2.80;;;;;;;;;;5100335;27;20111;-55
2022/11/02 00:05:42;;;;;;;13.25;2.50;;;;;;;;;;5101027;27;20403;-58
2022/11/02 00:08:08;;;;;;;10.80;2.40;;;;;;;;;;5097084;28;20036;-56
2022/11/02 00:10:33;;;;;;;9.95;2.53;;;;;;;;;;5106718;28;20115;-56
2022/11/02 00:12:58;;;;;;;8.20;2.25;;;;;;;;;;5104482;28;20106;-57
2022/11/02 00:15:24;;;;;;;7.60;2.50;;;;;;;;;;5131456;27;20097;-56
2022/11/02 00:17:50;;;;;;;18.92;3.95;;;;;;;;;;5106339;27;20049;-58
2022/11/02 00:20:16;;;;;;;20.80;3.60;;;;;;;;;;5094967;28;20508;-57
2022/11/02 00:22:41;;;;;;;19.58;3.47;;;;;;;;;;5099972;28;20046;-57
2022/11/02 00:25:07;;;;;;;22.90;4.05;;;;;;;;;;5131160;27;20398;-57
2022/11/02 00:27:32;;;;;;;18.48;3.15;;;;;;;;;;5099902;28;20028;-57
2022/11/02 00:29:58;;;;;;;13.60;2.50;;;;;;;;;;5099918;28;20046;-55
2022/11/02 00:32:23;;;;;;;13.70;2.85;;;;;;;;;;5089925;28;20682;-57
2022/11/02 00:34:49;;;;;;;13.18;2.70;;;;;;;;;;5105612;27;20382;-58
2022/11/02 00:37:14;;;;;;;13.75;2.58;;;;;;;;;;5091640;28;20019;-56
2022/11/02 00:39:39;;;;;;;14.15;3.13;;;;;;;;;;5100239;28;20472;-57
2022/11/02 00:42:05;;;;;;;13.38;2.67;;;;;;;;;;5094035;28;20032;-57
2022/11/02 00:44:30;;;;;;;13.90;2.38;;;;;;;;;;5089421;28;20398;-57
2022/11/02 00:46:55;;;;;;;13.00;2.78;;;;;;;;;;5094028;28;20023;-57
2022/11/02 00:49:20;;;;;;;11.10;2.13;;;;;;;;;;5088572;28;20334;-57
2022/11/02 00:51:46;;;;;;;11.02;2.17;;;;;;;;;;5094293;28;20020;-55
2022/11/02 00:54:11;;;;;;;16.73;2.70;;;;;;;;;;5087596;27;20096;-57
2022/11/02 00:56:37;;;;;;;17.75;3.47;;;;;;;;;;5098736;28;20114;-55
2022/11/02 00:59:03;;;;;;;14.80;3.70;;;;;;;;;;5090111;28;20106;-57
2022/11/02 01:01:28;;;;;;;19.65;3.45;;;;;;;;;;5097435;28;20111;-57
2022/11/02 01:03:54;;;;;;;12.30;3.35;;;;;;;;;;5093914;28;20048;-57
2022/11/02 01:06:20;;;;;;;17.70;2.85;;;;;;;;;;5090372;28;20074;-57
2022/11/02 01:08:45;;;;;;;10.35;2.70;;;;;;;;;;5091590;28;20024;-57
2022/11/02 01:11:17;;;;;;;15.93;2.83;;;;;;;;;;5092223;28;20069;-57
2022/11/02 01:13:42;;;;;;;10.32;2.22;;;;;;;;;;5091971;28;20147;-56
2022/11/02 01:16:08;;;;;;;18.13;2.95;;;;;;;;;;5090774;28;20457;-57
2022/11/02 01:18:33;;;;;;;18.88;3.25;;;;;;;;;;5087868;28;20028;-57
2022/11/02 01:20:58;;;;;;;14.77;2.50;;;;;;;;;;5093254;28;20043;-57
2022/11/02 01:23:24;;;;;;;11.85;2.70;;;;;;;;;;5088566;28;20304;-57
2022/11/02 01:25:49;;;;;;;14.43;2.35;;;;;;;;;;5087647;28;20277;-57
2022/11/02 01:28:15;;;;;;;16.70;2.28;;;;;;;;;;5080111;28;20028;-56
2022/11/02 01:30:40;;;;;;;7.43;2.75;;;;;;;;;;5085248;28;20330;-57
2022/11/02 01:33:05;;;;;;;16.33;2.92;;;;;;;;;;5083711;28;20027;-56
2022/11/02 01:35:30;;;;;;;12.43;2.65;;;;;;;;;;5077841;28;20023;-57
2022/11/02 01:37:56;;;;;;;12.18;2.22;;;;;;;;;;5085105;28;20036;-58
2022/11/02 01:40:21;;;;;;;14.98;2.65;;;;;;;;;;5087628;28;20027;-56
2022/11/02 01:42:46;;;;;;;11.77;2.88;;;;;;;;;;5087597;28;20069;-57
2022/11/02 01:45:12;;;;;;;12.18;2.55;;;;;;;;;;5080870;28;20675;-57
2022/11/02 01:47:38;;;;;;;14.23;3.03;;;;;;;;;;5087045;28;20086;-56
2022/11/02 01:50:10;;;;;;;15.63;2.88;;;;;;;;;;5067315;28;20098;-57
2022/11/02 01:52:36;;;;;;;18.75;3.58;;;;;;;;;;5080659;28;20077;-56
2022/11/02 01:55:20;;;;;;;14.95;2.75;;;;;;;;;;5092538;28;20027;-56
2022/11/02 01:57:50;;;;;;;15.63;2.85;;;;;;;;;;5078201;28;20099;-56
2022/11/02 02:00:16;;;;;;;12.02;2.83;;;;;;;;;;5078176;28;20024;-57
2022/11/02 02:02:46;;;;;;;13.07;2.83;;;;;;;;;;5080290;28;20529;-56
2022/11/02 02:05:11;;;;;;;13.18;2.80;;;;;;;;;;5073436;28;20044;-57
2022/11/02 02:07:37;;;;;;;13.38;2.70;;;;;;;;;;5085478;28;20133;-56
2022/11/02 02:10:02;;;;;;;12.50;2.80;;;;;;;;;;5087814;28;20031;-57
2022/11/02 02:12:28;;;;;;;13.75;2.80;;;;;;;;;;5078698;28;20395;-57
2022/11/02 02:14:53;;;;;;;12.88;2.80;;;;;;;;;;5078540;28;20475;-57
2022/11/02 02:17:27;;;;;;;14.95;3.60;;;;;;;;;;5090823;28;20056;-57
2022/11/02 02:19:53;;;;;;;13.60;2.75;;;;;;;;;;5077761;28;20016;-56
2022/11/02 02:22:27;;;;;;;15.68;3.45;;;;;;;;;;5090212;28;20019;-56
2022/11/02 02:25:11;;;;;;;13.63;3.50;;;;;;;;;;5092306;28;20054;-56
2022/11/02 02:27:39;;;;;;;13.82;3.00;;;;;;;;;;5083671;28;20466;-54
2022/11/02 02:30:05;;;;;;;15.95;3.22;;;;;;;;;;5089031;28;21306;-56
2022/11/02 02:32:35;;;;;;;14.75;3.00;;;;;;;;;;5112645;27;20047;-57
2022/11/02 02:35:00;;;;;;;;;;;;;;;;;;5082509;28;20143;-56
2022/11/02 02:37:34;;;;;;;14.82;4.03;;;;;;;;;;5081296;28;20003;-56
2022/11/02 02:40:20;;;;;;;12.80;3.05;;;;;;;;;;5081728;28;20745;-55
2022/11/02 02:42:52;;;;;;;12.75;2.95;;;;;;;;;;5083575;28;20122;-56
2022/11/02 02:45:36;;;;;;;12.15;2.75;;;;;;;;;;5115098;27;20031;-56
2022/11/02 02:48:04;;;;;;;12.75;3.03;;;;;;;;;;5080577;28;20046;-56
2022/11/02 02:50:31;;;;;;;14.18;3.28;;;;;;;;;;5117871;27;20021;-56
2022/11/02 02:52:57;;;;;;;13.35;3.03;;;;;;;;;;5089415;28;20661;-57
2022/11/02 02:55:24;;;;;;;15.95;3.22;;;;;;;;;;5079839;27;20028;-56
2022/11/02 02:57:49;;;;;;;13.57;2.97;;;;;;;;;;5115133;27;20023;-56
2022/11/02 03:00:16;;;;;;;11.13;2.90;;;;;;;;;;5077595;28;20030;-56
2022/11/02 03:02:41;;;;;;;13.43;3.55;;;;;;;;;;5084126;28;20019;-56
2022/11/02 03:05:24;;;;;;;17.95;3.05;;;;;;;;;;5073150;28;20056;-57
2022/11/02 03:07:49;;;;;;;14.05;2.88;;;;;;;;;;5084692;28;20019;-57
2022/11/02 03:10:23;;;;;;;17.45;3.50;;;;;;;;;;5109373;27;20697;-57
2022/11/02 03:12:54;;;;;;;11.65;2.75;;;;;;;;;;5084120;28;20026;-56
2022/11/02 03:15:36;;;;;;;12.90;3.72;;;;;;;;;;5085762;28;20073;-56
2022/11/02 03:18:01;;;;;;;16.63;3.28;;;;;;;;;;5078016;28;20540;-57
2022/11/02 03:20:33;;;;;;;12.68;3.03;;;;;;;;;;5073592;28;20021;-56
2022/11/02 03:23:01;;;;;;;11.60;2.95;;;;;;;;;;5083020;28;20052;-57
2022/11/02 03:25:32;;;;;;;18.67;3.00;;;;;;;;;;5078541;28;20081;-56
2022/11/02 03:28:00;;;;;;;19.17;3.55;;;;;;;;;;5078468;28;20020;-57
2022/11/02 03:30:25;;;;;;;19.42;3.45;;;;;;;;;;5077590;28;20030;-56
2022/11/02 03:33:17;;;;;;;18.67;3.20;;;;;;;;;;5092141;28;20242;-54
2022/11/02 03:36:08;;;;;;;12.60;3.10;;;;;;;;;;5059003;28;20402;-56
2022/11/02 03:38:35;;;;;;;13.52;2.97;;;;;;;;;;5080950;28;20119;-57
2022/11/02 03:41:00;;;;;;;20.90;3.33;;;;;;;;;;5079002;28;20527;-56
2022/11/02 03:43:26;;;;;;;16.77;2.90;;;;;;;;;;5075156;28;20012;-56
2022/11/02 03:45:52;;;;;;;12.55;3.38;;;;;;;;;;5077927;28;20523;-55
2022/11/02 03:48:17;;;;;;;16.88;2.70;;;;;;;;;;5088264;28;20111;-57
2022/11/02 03:50:47;;;;;;;16.52;3.90;;;;;;;;;;5080346;28;20215;-56
2022/11/02 03:53:18;;;;;;;17.90;3.00;;;;;;;;;;5086621;28;20107;-56
2022/11/02 03:55:45;;;;;;;22.58;3.42;;;;;;;;;;5083481;28;20047;-56
2022/11/02 03:58:10;;;;;;;16.23;2.72;;;;;;;;;;5082255;28;20066;-56
2022/11/02 04:00:35;;;;;;;13.60;2.65;;;;;;;;;;5084906;28;20527;-55
2022/11/02 04:03:07;;;;;;;14.57;2.85;;;;;;;;;;5074537;28;20028;-56
2022/11/02 04:05:33;;;;;;;17.10;3.35;;;;;;;;;;5110500;27;20490;-56
2022/11/02 04:16:10;;;;;;;15.25;2.88;;;;;;;;;;5087164;28;20097;-56
2022/11/02 04:21:19;;;;;;;15.70;2.90;;;;;;;;;;5071854;28;20035;-57
2022/11/02 04:26:28;;;;;;;13.80;3.00;;;;;;;;;;5079303;28;20097;-57
2022/11/02 04:28:53;;;;;;;12.73;3.03;;;;;;;;;;5080100;28;20027;-56
2022/11/02 04:31:19;;;;;;;14.27;3.00;;;;;;;;;;5089775;28;20103;-56
2022/11/02 04:33:44;;;;;;;11.80;3.17;;;;;;;;;;5081650;28;20119;-56
2022/11/02 04:36:09;;;;;;;16.83;3.22;;;;;;;;;;5079321;28;20501;-56
2022/11/02 04:38:40;;;;;;;12.23;3.15;;;;;;;;;;5086944;28;20073;-56
2022/11/02 04:43:53;;;;;;;13.70;2.90;;;;;;;;;;5072153;28;20123;-56
2022/11/02 04:46:19;;;;;;;18.88;2.95;;;;;;;;;;5082887;28;20115;-59
2022/11/02 04:48:44;;;;;;;12.68;3.17;;;;;;;;;;5081977;28;20298;-57
2022/11/02 04:51:09;;;;;;;8.57;3.22;;;;;;;;;;5078704;28;20020;-56
2022/11/02 04:53:34;;;;;;;6.45;2.95;;;;;;;;;;5080934;28;20031;-57
2022/11/02 04:56:00;;;;;;;15.20;3.45;;;;;;;;;;5085304;28;20028;-56
2022/11/02 04:58:25;;;;;;;11.60;2.90;;;;;;;;;;5079935;28;20078;-57
2022/11/02 05:00:50;;;;;;;14.68;2.83;;;;;;;;;;5085198;28;20046;-56
2022/11/02 05:03:15;;;;;;;10.43;2.92;;;;;;;;;;5091637;28;20407;-57
2022/11/02 05:05:41;;;;;;;12.43;3.08;;;;;;;;;;5078060;28;20118;-56
2022/11/02 05:08:06;;;;;;;10.98;2.40;;;;;;;;;;5091902;28;20369;-55
2022/11/02 05:10:31;;;;;;;15.63;2.88;;;;;;;;;;5075653;28;20397;-56
2022/11/02 05:12:57;;;;;;;13.52;2.67;;;;;;;;;;5081739;28;20280;-57
2022/11/02 05:15:22;;;;;;;9.35;2.50;;;;;;;;;;5115990;27;20521;-55
2022/11/02 05:17:47;;;;;;;15.50;2.72;;;;;;;;;;5085393;28;20419;-56
2022/11/02 05:20:13;;;;;;;11.32;3.25;;;;;;;;;;5096625;28;20048;-57
2022/11/02 05:22:40;;;;;;;10.98;2.28;;;;;;;;;;5079437;28;20077;-56
2022/11/02 05:25:05;;;;;;;11.40;2.83;;;;;;;;;;5078582;28;20025;-57
2022/11/02 05:27:30;;;;;;;14.10;3.70;;;;;;;;;;5082327;28;20074;-55
2022/11/02 05:29:56;;;;;;;16.60;3.20;;;;;;;;;;5072602;28;20067;-57
2022/11/02 05:32:21;;;;;;;8.93;2.92;;;;;;;;;;5080768;28;20167;-55
2022/11/02 05:34:46;;;;;;;15.63;2.75;;;;;;;;;;5099146;28;20023;-56
2022/11/02 05:37:11;;;;;;;15.55;3.05;;;;;;;;;;5084432;28;20039;-57
2022/11/02 05:39:37;;;;;;;14.23;3.28;;;;;;;;;;5088009;28;20027;-55
2022/11/02 05:42:02;;;;;;;11.60;3.25;;;;;;;;;;5083790;28;20017;-57
2022/11/02 05:44:27;;;;;;;17.25;3.20;;;;;;;;;;5084051;28;20035;-56
2022/11/02 05:46:53;;;;;;;14.15;2.90;;;;;;;;;;5094625;28;20054;-56
2022/11/02 05:49:18;;;;;;;10.50;2.60;;;;;;;;;;5083912;28;20549;-57
2022/11/02 05:51:43;;;;;;;15.38;3.00;;;;;;;;;;5087910;28;20111;-55
2022/11/02 05:54:08;;;;;;;17.67;3.03;;;;;;;;;;5080476;28;20025;-56
2022/11/02 05:56:34;;;;;;;12.90;2.85;;;;;;;;;;5086130;28;20209;-56
2022/11/02 05:58:59;;;;;;;12.13;2.67;;;;;;;;;;5080765;28;20024;-55
2022/11/02 06:01:24;;;;;;;11.10;2.70;;;;;;;;;;5082961;28;20025;-58
2022/11/02 06:03:50;;;;;;;15.00;3.42;;;;;;;;;;5081432;28;20028;-58
2022/11/02 06:06:15;;;;;;;15.95;3.20;;;;;;;;;;5084198;28;20111;-56
2022/11/02 06:08:40;;;;;;;12.02;2.63;;;;;;;;;;5092581;28;20369;-54
2022/11/02 06:11:14;;;;;;;12.63;2.95;;;;;;;;;;5089196;28;21449;-58
2022/11/02 06:13:40;;;;;;;18.48;3.25;;;;;;;;;;5090648;28;20084;-55
2022/11/02 06:16:08;;;;;;;14.32;2.75;;;;;;;;;;5086192;28;20016;-56
2022/11/02 06:18:33;;;;;;;13.10;2.97;;;;;;;;;;5092164;28;20215;-57
2022/11/02 06:20:58;;;;;;;11.30;2.78;;;;;;;;;;5085421;28;20056;-55
2022/11/02 06:23:24;;;;;;;18.45;3.15;;;;;;;;;;5072812;28;20016;-55
2022/11/02 06:25:50;;;;;;;12.95;3.15;;;;;;;;;;5086341;28;20354;-57
2022/11/02 06:28:15;;;;;;;12.10;3.28;;;;;;;;;;5078477;28;20024;-56
2022/11/02 06:30:41;;;;;;;11.27;2.75;;;;;;;;;;5093669;28;20554;-56
2022/11/02 06:33:06;;;;;;;10.25;2.67;;;;;;;;;;5084873;28;20157;-55
2022/11/02 06:35:32;;;;;;;18.38;2.75;;;;;;;;;;5072030;28;20587;-56
2022/11/02 06:37:57;;;;;;;19.58;3.25;;;;;;;;;;5081201;28;20373;-57
2022/11/02 06:40:22;;;;;;;13.55;2.80;;;;;;;;;;5080345;28;20081;-56
2022/11/02 06:42:48;;;;;;;12.38;3.05;;;;;;;;;;5087585;28;20166;-57
2022/11/02 06:45:13;;;;;;;11.70;2.70;;;;;;;;;;5084097;28;20100;-55
2022/11/02 06:47:40;;;;;;;13.18;2.83;;;;;;;;;;5086679;28;20043;-57
2022/11/02 06:50:05;;;;;;;19.20;3.63;;;;;;;;;;5078764;28;20020;-57
2022/11/02 06:52:30;;;;;;;14.63;3.08;;;;;;;;;;5080211;28;20031;-55
2022/11/02 06:54:56;;;;;;;8.80;2.28;;;;;;;;;;5120545;27;20016;-56
2022/11/02 06:57:21;;;;;;;16.73;3.72;;;;;;;;;;5086362;28;20015;-56
2022/11/02 06:59:47;;;;;;;22.95;3.03;;;;;;;;;;5107231;27;20015;-56
2022/11/02 07:02:12;;;;;;;17.08;3.55;;;;;;;;;;5084252;28;20024;-56
2022/11/02 07:04:37;;;;;;;15.07;2.92;;;;;;;;;;5081366;28;20051;-56
2022/11/02 07:07:02;;;;;;;13.15;2.85;;;;;;;;;;5073863;28;20024;-56
2022/11/02 07:09:28;;;;;;;12.10;2.63;;;;;;;;;;5078135;28;20115;-56
2022/11/02 07:11:53;;;;;;;21.65;3.05;;;;;;;;;;5069160;28;20051;-57
2022/11/02 07:14:18;;;;;;;14.98;3.75;;;;;;;;;;5073996;28;20027;-57
2022/11/02 07:16:43;;;;;;;16.42;3.33;;;;;;;;;;5086603;28;20047;-56
2022/11/02 07:19:09;;;;;;;11.45;3.13;;;;;;;;;;5084149;28;20020;-56
2022/11/02 07:21:34;;;;;;;8.30;2.65;;;;;;;;;;5086391;28;20467;-56
2022/11/02 07:23:59;;;;;;;14.57;2.83;;;;;;;;;;5086220;28;20391;-56
2022/11/02 07:26:25;;;;;;;8.43;2.60;;;;;;;;;;5087368;28;20068;-56
2022/11/02 07:28:51;;;;;;;8.15;2.53;;;;;;;;;;5077951;28;20044;-56
2022/11/02 07:31:16;;;;;;;9.20;2.63;;;;;;;;;;5078218;28;20446;-56
2022/11/02 07:33:41;;;;;;;11.40;2.97;;;;;;;;;;5092445;28;20493;-56
2022/11/02 07:36:06;;;;;;;15.48;2.90;;;;;;;;;;5077315;28;20501;-56
2022/11/02 07:38:32;;;;;;;11.65;2.50;;;;;;;;;;5088536;28;20158;-54
2022/11/02 07:40:57;;;;;;;14.02;2.85;;;;;;;;;;5068889;28;20021;-56
2022/11/02 07:43:22;;;;;;;11.98;2.67;;;;;;;;;;5080312;28;20421;-56
2022/11/02 07:45:47;;;;;;;13.13;3.05;;;;;;;;;;5077201;28;20031;-56
2022/11/02 07:48:13;;;;;;;12.60;2.92;;;;;;;;;;5076892;28;20050;-56
2022/11/02 07:50:38;;;;;;;11.43;2.85;;;;;;;;;;5077834;28;20016;-57
2022/11/02 07:53:03;;;;;;;8.70;3.10;;;;;;;;;;5077862;28;20021;-56
2022/11/02 07:55:29;;;;;;;13.43;2.67;;;;;;;;;;5085736;28;20034;-56
2022/11/02 07:57:55;;;;;;;12.40;2.83;;;;;;;;;;5082747;28;20028;-56
2022/11/02 08:00:20;;;;;;;13.98;2.40;;;;;;;;;;5070514;28;20070;-55
2022/11/02 08:02:46;;;;;;;10.65;2.60;;;;;;;;;;5088051;28;20387;-56
2022/11/02 08:05:11;;;;;;;10.68;2.83;;;;;;;;;;5076589;28;20036;-56
2022/11/02 08:07:36;;;;;;;11.52;2.17;;;;;;;;;;5091474;28;20115;-55
2022/11/02 08:10:01;;;;;;;11.20;2.22;;;;;;;;;;5074982;28;20392;-56
2022/11/02 08:12:27;;;;;;;11.27;2.35;;;;;;;;;;5076546;28;20024;-56
2022/11/02 08:14:52;;;;;;;10.82;2.50;;;;;;;;;;5089339;28;20064;-55
2022/11/02 08:17:17;;;;;;;8.95;2.60;;;;;;;;;;5074683;28;20027;-55
2022/11/02 08:19:42;;;;;;;13.70;2.42;;;;;;;;;;5080339;28;20035;-55
2022/11/02 08:22:07;;;;;;;10.00;2.30;;;;;;;;;;5068263;28;20019;-55
2022/11/02 08:24:33;;;;;;;16.27;2.70;;;;;;;;;;5075905;28;20054;-56
2022/11/02 08:26:58;;;;;;;13.88;2.85;;;;;;;;;;5081659;28;20127;-56
2022/11/02 08:29:23;;;;;;;13.43;3.05;;;;;;;;;;5077225;28;20027;-56
2022/11/02 08:31:48;;;;;;;14.48;2.80;;;;;;;;;;5085765;28;20032;-56
2022/11/02 08:34:14;;;;;;;15.63;2.80;;;;;;;;;;5086506;28;20024;-56
2022/11/02 08:36:39;;;;;;;10.60;2.72;;;;;;;;;;5093217;28;20024;-56
2022/11/02 08:39:04;;;;;;;11.18;2.38;;;;;;;;;;5086478;28;20028;-56
2022/11/02 08:41:29;;;;;;;14.63;2.90;;;;;;;;;;5082534;28;20609;-56
2022/11/02 08:43:56;;;;;;;18.98;2.92;;;;;;;;;;5088838;28;20050;-56
2022/11/02 08:46:22;;;;;;;9.60;2.45;;;;;;;;;;5084279;28;20082;-55
2022/11/02 08:48:47;;;;;;;15.05;3.03;;;;;;;;;;5083831;28;20015;-56
2022/11/02 08:51:12;;;;;;;14.00;2.95;;;;;;;;;;5088413;28;20028;-56
2022/11/02 08:53:37;;;;;;;14.60;2.63;;;;;;;;;;5076748;28;20062;-56
2022/11/02 08:56:03;;;;;;;12.88;2.70;;;;;;;;;;5081595;28;20031;-56
2022/11/02 08:58:28;;;;;;;10.73;2.28;;;;;;;;;;5092091;28;20035;-56
2022/11/02 09:00:53;;;;;;;10.07;2.00;;;;;;;;;;5073874;28;20132;-55
2022/11/02 09:03:20;;;;;;;11.63;2.75;;;;;;;;;;5078313;28;20032;-57
2022/11/02 09:05:45;;;;;;;9.73;2.20;;;;;;;;;;5086989;28;20317;-56
2022/11/02 09:08:17;;;;;;;15.30;2.55;;;;;;;;;;5081345;28;20023;-56
2022/11/02 09:10:43;;;;;;;10.85;2.30;;;;;;;;;;5078763;28;20032;-56
2022/11/02 09:13:09;;;;;;;11.80;2.58;;;;;;;;;;5092600;28;20133;-54
2022/11/02 09:15:34;;;;;;;9.25;2.15;;;;;;;;;;5075060;28;20028;-56
2022/11/02 09:18:00;;;;;;;15.77;2.92;;;;;;;;;;5088277;28;20116;-56
2022/11/02 09:20:25;;;;;;;16.02;2.92;;;;;;;;;;5081244;28;20102;-56
2022/11/02 09:22:50;;;;;;;9.10;2.20;;;;;;;;;;5089852;28;20104;-54
2022/11/02 09:25:16;;;;;;;11.20;2.50;;;;;;;;;;5072353;28;20137;-56
2022/11/02 09:27:41;;;;;;;9.98;2.28;;;;;;;;;;5086338;28;20457;-55
2022/11/02 09:30:07;;;;;;;13.52;2.35;;;;;;;;;;5082276;28;20015;-55
2022/11/02 09:32:32;;;;;;;14.75;2.30;;;;;;;;;;5084222;28;20115;-59
2022/11/02 09:35:07;;;;;;;11.93;2.72;;;;;;;;;;5081610;28;20023;-56
2022/11/02 09:37:33;;;;;;;12.80;2.38;;;;;;;;;;5080806;28;20601;-55
2022/11/02 09:39:58;;;;;;;18.65;3.15;;;;;;;;;;5085973;28;20130;-55
2022/11/02 09:42:32;;;;;;;11.52;2.17;;;;;;;;;;5080956;28;20097;-57
2022/11/02 09:44:59;;;;;;;13.68;2.30;;;;;;;;;;5085522;28;20127;-58
2022/11/02 09:47:25;;;;;;;13.50;3.13;;;;;;;;;;5088307;28;20080;-55
2022/11/02 09:49:50;;;;;;;11.35;2.00;;;;;;;;;;5080094;28;20024;-56
2022/11/02 09:52:20;;;;;;;10.63;2.28;;;;;;;;;;5078837;28;20027;-56
2022/11/02 09:54:49;;;;;;;9.43;2.35;;;;;;;;;;5076824;28;20035;-55
2022/11/02 09:57:26;;;;;;;11.25;2.50;;;;;;;;;;5077261;28;20024;-57
2022/11/02 09:59:51;;;;;;;12.90;2.40;;;;;;;;;;5079311;28;20019;-55
2022/11/02 10:02:28;;;;;;;13.90;3.03;;;;;;;;;;5086128;28;20097;-55
2022/11/02 10:05:00;;;;;;;17.92;2.58;;;;;;;;;;5075728;28;20048;-55
2022/11/02 10:07:25;;;;;;;11.35;2.55;;;;;;;;;;5078297;28;20025;-57
2022/11/02 10:09:55;;;;;;;12.52;2.47;;;;;;;;;;5098620;28;20031;-56
2022/11/02 10:12:20;;;;;;;16.25;2.78;;;;;;;;;;5089475;28;20038;-54
2022/11/02 10:14:52;;;;;;;9.65;2.05;;;;;;;;;;5083766;28;20024;-55
2022/11/02 10:17:24;;;;;;;14.18;2.42;;;;;;;;;;5083522;28;20103;-57
2022/11/02 10:19:59;;;;;;;12.23;2.35;;;;;;;;;;5088272;28;20016;-56
2022/11/02 10:22:28;;;;;;;7.38;1.70;;;;;;;;;;5086646;28;20032;-57
2022/11/02 10:24:53;;;;;;;17.17;2.40;;;;;;;;;;5089736;28;20167;-57
2022/11/02 10:27:19;;;;;;;11.20;2.15;;;;;;;;;;5084220;28;20062;-56
2022/11/02 10:29:59;;;;;;;9.35;2.03;;;;;;;;;;5080687;28;20118;-56
2022/11/02 10:32:24;;;;;;;10.27;2.67;;;;;;;;;;5118030;27;20082;-56
2022/11/02 10:34:50;;;;;;;7.35;2.28;;;;;;;;;;5073826;28;20032;-56
2022/11/02 10:37:22;;;;;;;10.55;2.13;;;;;;;;;;5111738;27;20016;-56
2022/11/02 10:40:06;;;;;;;9.95;2.13;;;;;;;;;;5074332;28;20107;-56
2022/11/02 10:42:34;;;;;;;9.80;2.00;;;;;;;;;;5088087;28;20082;-56
2022/11/02 10:45:20;;;;;;;10.52;2.42;;;;;;;;;;5088020;28;20285;-57
2022/11/02 10:48:04;;;;;;;8.30;1.80;;;;;;;;;;5071350;28;20112;-56
2022/11/02 10:50:32;;;;;;;12.05;2.53;;;;;;;;;;5077356;28;20016;-56
2022/11/02 10:53:01;;;;;;;8.75;2.05;;;;;;;;;;5087019;28;20016;-56
2022/11/02 10:55:28;;;;;;;11.27;2.10;;;;;;;;;;5074476;28;20021;-56
2022/11/02 10:57:54;;;;;;;8.50;2.25;;;;;;;;;;5082135;28;20024;-55
2022/11/02 11:00:23;;;;;;;11.52;2.05;;;;;;;;;;5114174;27;20028;-57
2022/11/02 11:03:07;;;;;;;10.60;1.92;;;;;;;;;;5081973;28;20263;-56
2022/11/02 11:05:33;;;;;;;6.40;1.92;;;;;;;;;;5075759;28;20414;-56
2022/11/02 11:07:59;;;;;;;13.00;2.47;;;;;;;;;;5081156;28;20036;-55
2022/11/02 11:10:24;;;;;;;9.10;2.47;;;;;;;;;;5071772;28;20021;-55
2022/11/02 11:12:49;;;;;;;11.13;2.30;;;;;;;;;;5079369;28;20028;-55
2022/11/02 11:15:19;;;;;;;8.65;1.92;;;;;;;;;;5074560;28;20028;-57
2022/11/02 11:17:45;;;;;;;7.90;2.15;;;;;;;;;;5080275;28;20246;-56
2022/11/02 11:20:29;;;;;;;15.52;2.28;;;;;;;;;;5087156;28;20042;-56
2022/11/02 11:23:14;;;;;;;7.93;2.08;;;;;;;;;;5080230;28;20443;-57
2022/11/02 11:25:39;;;;;;;10.30;1.90;;;;;;;;;;5075591;28;20027;-56
2022/11/02 11:28:07;;;;;;;9.77;2.45;;;;;;;;;;5082096;28;20032;-56
2022/11/02 11:30:33;;;;;;;12.00;2.17;;;;;;;;;;5114846;27;20161;-56
2022/11/02 11:32:59;;;;;;;11.65;2.83;;;;;;;;;;5088153;28;20427;-57
2022/11/02 11:35:28;;;;;;;7.28;1.70;;;;;;;;;;5110979;27;20395;-57
2022/11/02 11:37:54;;;;;;;10.13;2.00;;;;;;;;;;5071073;28;20023;-57
2022/11/02 11:40:20;;;;;;;11.77;2.30;;;;;;;;;;5080795;28;20052;-57
2022/11/02 11:42:45;;;;;;;12.48;2.42;;;;;;;;;;5080251;28;20027;-56
2022/11/02 11:45:19;;;;;;;10.02;2.22;;;;;;;;;;5116003;27;20067;-55
2022/11/02 11:47:44;;;;;;;8.93;1.92;;;;;;;;;;5081191;28;20085;-55
2022/11/02 11:50:13;;;;;;;12.52;2.40;;;;;;;;;;5085987;28;20021;-55
2022/11/02 11:52:38;;;;;;;13.00;2.30;;;;;;;;;;5088355;28;20027;-54
2022/11/02 11:55:19;;;;;;;10.05;2.10;;;;;;;;;;5119580;27;20497;-55
2022/11/02 11:57:44;;;;;;;10.80;2.30;;;;;;;;;;5073590;28;20231;-55
2022/11/02 12:00:30;;;;;;;10.40;2.20;;;;;;;;;;5081349;28;20078;-55
2022/11/02 12:03:04;;;;;;;13.85;2.33;;;;;;;;;;5075973;28;20048;-54
2022/11/02 12:05:29;;;;;;;13.18;2.20;;;;;;;;;;5081948;28;20434;-59
2022/11/02 12:07:55;;;;;;;10.27;2.22;;;;;;;;;;5079257;28;20263;-57
2022/11/02 12:10:39;;;;;;;8.18;1.98;;;;;;;;;;5079888;28;20032;-56
2022/11/02 12:13:14;;;;;;;14.20;2.30;;;;;;;;;;5075489;28;20052;-56
2022/11/02 12:15:48;;;;;;;13.55;2.28;;;;;;;;;;5082449;28;20526;-57
2022/11/02 12:18:18;;;;;;;12.70;2.55;;;;;;;;;;5070402;28;20150;-57
2022/11/02 12:20:52;;;;;;;11.82;2.30;;;;;;;;;;5083335;28;20066;-57
2022/11/02 12:23:17;;;;;;;9.27;2.33;;;;;;;;;;5083947;28;20020;-57
2022/11/02 12:25:43;;;;;;;10.43;2.30;;;;;;;;;;5079097;28;20088;-56
2022/11/02 12:28:26;;;;;;;9.02;2.17;;;;;;;;;;5090876;28;20023;-55
2022/11/02 12:31:04;;;;;;;12.05;2.28;;;;;;;;;;5079908;28;20024;-55
2022/11/02 12:33:49;;;;;;;9.48;2.17;;;;;;;;;;5071565;28;20020;-55
2022/11/02 12:36:29;;;;;;;12.38;2.50;;;;;;;;;;5080413;28;20379;-55
2022/11/02 12:38:54;;;;;;;;;;;;;;;;;;5078189;28;20023;-55
2022/11/02 12:41:31;;;;;;;14.13;2.40;;;;;;;;;;5083142;28;19912;-55
2022/11/02 12:44:15;;;;;;;9.95;2.03;;;;;;;;;;5073396;28;20029;-55
2022/11/02 12:46:53;;;;;;;12.52;2.20;;;;;;;;;;5088254;28;20020;-55
2022/11/02 12:49:38;;;;;;;11.75;2.30;;;;;;;;;;5085142;28;20201;-56
2022/11/02 12:52:04;;;;;;;11.75;2.50;;;;;;;;;;5084094;28;20024;-56
2022/11/02 12:54:37;;;;;;;12.07;2.45;;;;;;;;;;5077331;28;20062;-56
2022/11/02 12:57:03;;;;;;;9.63;2.92;;;;;;;;;;5112380;27;20071;-55
2022/11/02 12:59:29;;;;;;;10.55;1.90;;;;;;;;;;5080135;28;20054;-55
2022/11/02 13:02:04;;;;;;;8.90;2.83;;;;;;;;;;5079244;28;20056;-55
2022/11/02 13:04:32;;;;;;;8.45;2.00;;;;;;;;;;5080621;28;20123;-54
2022/11/02 13:07:01;;;;;;;9.85;2.05;;;;;;;;;;5082695;28;20370;-55
2022/11/02 13:09:40;;;;;;;6.22;2.30;;;;;;;;;;5078790;28;20055;-56
2022/11/02 13:12:13;;;;;;;8.38;1.85;;;;;;;;;;5083553;28;20040;-55
2022/11/02 13:14:39;;;;;;;10.30;1.80;;;;;;;;;;5109328;27;20107;-56
2022/11/02 13:17:08;;;;;;;12.15;1.95;;;;;;;;;;5080813;28;20407;-55
2022/11/02 13:19:35;;;;;;;7.00;2.05;;;;;;;;;;5120584;27;20039;-56
2022/11/02 13:22:00;;;;;;;8.07;1.80;;;;;;;;;;5090398;28;20012;-57
2022/11/02 13:24:26;;;;;;;12.07;2.25;;;;;;;;;;5091803;27;20059;-60
2022/11/02 13:26:51;;;;;;;11.20;2.10;;;;;;;;;;5075828;28;20521;-53
2022/11/02 13:29:21;;;;;;;9.25;2.10;;;;;;;;;;5084449;28;20111;-57
2022/11/02 13:31:56;;;;;;;7.28;1.92;;;;;;;;;;5081825;28;20028;-57
2022/11/02 13:34:33;;;;;;;13.02;2.10;;;;;;;;;;5086449;28;20028;-57
2022/11/02 13:37:02;;;;;;;8.50;1.77;;;;;;;;;;5084709;28;20030;-57
2022/11/02 13:39:32;;;;;;;7.83;2.13;;;;;;;;;;5111612;27;20301;-57
2022/11/02 13:42:11;;;;;;;11.82;2.28;;;;;;;;;;5080515;28;20050;-56
2022/11/02 13:44:42;;;;;;;7.45;2.17;;;;;;;;;;5091455;28;20052;-55
2022/11/02 13:47:10;;;;;;;10.73;1.80;;;;;;;;;;5078482;28;20025;-54
2022/11/02 13:49:39;;;;;;;7.55;1.80;;;;;;;;;;5088606;28;20039;-55
2022/11/02 13:52:24;;;;;;;8.50;1.98;;;;;;;;;;5079202;28;20035;-57
2022/11/02 13:54:54;;;;;;;8.88;2.22;;;;;;;;;;5073897;28;20247;-57
2022/11/02 13:57:26;;;;;;;12.23;2.33;;;;;;;;;;5079895;28;20021;-54
2022/11/02 13:59:52;;;;;;;8.52;1.80;;;;;;;;;;5089548;28;20027;-54
2022/11/02 14:02:17;;;;;;;9.85;2.13;;;;;;;;;;5083069;28;20016;-55
2022/11/02 14:04:42;;;;;;;11.00;2.15;;;;;;;;;;5085058;28;20043;-54
2022/11/02 14:07:28;;;;;;;14.07;2.53;;;;;;;;;;5114610;27;20075;-55
2022/11/02 14:09:57;;;;;;;10.93;2.08;;;;;;;;;;5083290;28;20034;-54
2022/11/02 14:12:22;;;;;;;10.73;1.90;;;;;;;;;;5088679;28;20020;-54
2022/11/02 14:15:06;;;;;;;8.02;1.60;;;;;;;;;;5082138;28;20066;-55
2022/11/02 14:17:51;;;;;;;10.00;2.10;;;;;;;;;;5086033;28;20119;-56
2022/11/02 14:20:35;;;;;;;16.50;2.30;;;;;;;;;;5080645;28;20020;-55
2022/11/02 14:23:10;;;;;;;8.20;2.20;;;;;;;;;;5078080;28;20655;-55
2022/11/02 14:25:44;;;;;;;10.38;2.08;;;;;;;;;;5084624;28;20055;-56
2022/11/02 14:28:33;;;;;;;10.85;1.95;;;;;;;;;;5077009;28;20017;-55
2022/11/02 14:31:04;;;;;;;9.70;2.00;;;;;;;;;;5075814;28;20044;-55
2022/11/02 14:33:38;;;;;;;17.10;2.00;;;;;;;;;;5085735;28;20483;-55
2022/11/02 14:36:06;;;;;;;9.07;1.80;;;;;;;;;;5079719;28;20024;-55
2022/11/02 14:38:43;;;;;;;10.75;2.22;;;;;;;;;;5074382;28;20052;-56
2022/11/02 14:41:17;;;;;;;8.50;2.13;;;;;;;;;;5082363;28;20077;-55
2022/11/02 14:43:51;;;;;;;15.25;2.05;;;;;;;;;;5076059;28;20043;-55
2022/11/02 14:46:22;;;;;;;10.38;2.38;;;;;;;;;;5088064;28;20044;-55
2022/11/02 14:48:51;;;;;;;12.30;2.03;;;;;;;;;;5086587;28;20047;-56
2022/11/02 14:51:20;;;;;;;9.63;2.10;;;;;;;;;;5112277;27;20024;-56
2022/11/02 14:53:45;;;;;;;11.25;2.22;;;;;;;;;;5079871;28;20047;-54
2022/11/02 14:56:10;;;;;;;9.52;1.95;;;;;;;;;;5077621;28;20480;-55